sensor_id;sensor_type;location;lat;lon;timestamp;pressure;altitude;pressure_sealevel;temperature;humidity
7834;BME280;3962;42.696;23.354;2023-07-13T00:01:45;95451.44;;;23.37;60.78
7834;BME280;3962;42.696;23.354;2023-07-13T00:04:15;95450.25;;;23.27;61.41
7834;BME280;3962;42.696;23.354;2023-07-13T00:06:42;95450.13;;;23.15;61.94
7834;BME280;3962;42.696;23.354;2023-07-13T00:09:12;95443.66;;;23.16;62.01
7834;BME280;3962;42.696;23.354;2023-07-13T00:11:40;95454.91;;;23.20;62.25
7834;BME280;3962;42.696;23.354;2023-07-13T00:14:07;95456.19;;;23.17;62.61
7834;BME280;3962;42.696;23.354;2023-07-13T00:16:34;95449.94;;;23.10;62.80
7834;BME280;3962;42.696;23.354;2023-07-13T00:19:02;95445.78;;;23.08;63.31
7834;BME280;3962;42.696;23.354;2023-07-13T00:21:29;95439.13;;;23.04;63.49
7834;BME280;3962;42.696;23.354;2023-07-13T00:23:55;95435.59;;;23.03;63.79
7834;BME280;3962;42.696;23.354;2023-07-13T00:26:24;95436.13;;;23.12;63.72
7834;BME280;3962;42.696;23.354;2023-07-13T00:28:50;95438.03;;;23.11;63.73
7834;BME280;3962;42.696;23.354;2023-07-13T00:31:18;95437.63;;;23.08;64.27
7834;BME280;3962;42.696;23.354;2023-07-13T00:33:45;95433.03;;;23.15;64.18
7834;BME280;3962;42.696;23.354;2023-07-13T00:36:12;95430.09;;;23.10;64.25
7834;BME280;3962;42.696;23.354;2023-07-13T00:38:38;95426.00;;;23.01;64.63
7834;BME280;3962;42.696;23.354;2023-07-13T00:41:05;95426.00;;;23.01;65.55
7834;BME280;3962;42.696;23.354;2023-07-13T00:43:33;95430.81;;;22.99;67.76
7834;BME280;3962;42.696;23.354;2023-07-13T00:46:25;95436.72;;;22.90;69.27
7834;BME280;3962;42.696;23.354;2023-07-13T00:48:53;95434.06;;;22.83;70.09
7834;BME280;3962;42.696;23.354;2023-07-13T00:51:25;95432.66;;;22.74;70.22
7834;BME280;3962;42.696;23.354;2023-07-13T00:53:56;95432.47;;;22.69;71.37
7834;BME280;3962;42.696;23.354;2023-07-13T00:56:25;95431.28;;;22.59;72.46
7834;BME280;3962;42.696;23.354;2023-07-13T00:58:55;95429.66;;;22.45;73.14
7834;BME280;3962;42.696;23.354;2023-07-13T01:01:22;95425.72;;;22.41;74.07
7834;BME280;3962;42.696;23.354;2023-07-13T01:03:49;95422.16;;;22.47;73.49
7834;BME280;3962;42.696;23.354;2023-07-13T01:06:16;95422.16;;;22.47;73.75
7834;BME280;3962;42.696;23.354;2023-07-13T01:08:44;95420.94;;;22.30;74.73
7834;BME280;3962;42.696;23.354;2023-07-13T01:11:10;95424.94;;;22.27;75.13
7834;BME280;3962;42.696;23.354;2023-07-13T01:13:37;95425.72;;;22.34;75.16
7834;BME280;3962;42.696;23.354;2023-07-13T01:16:13;95423.41;;;22.38;75.25
7834;BME280;3962;42.696;23.354;2023-07-13T01:18:41;95432.81;;;22.35;75.62
7834;BME280;3962;42.696;23.354;2023-07-13T01:21:09;95429.72;;;22.32;76.01
7834;BME280;3962;42.696;23.354;2023-07-13T01:23:36;95412.59;;;22.31;76.21
7834;BME280;3962;42.696;23.354;2023-07-13T01:26:03;95413.84;;;22.35;76.80
7834;BME280;3962;42.696;23.354;2023-07-13T01:28:29;95411.31;;;22.40;76.46
7834;BME280;3962;42.696;23.354;2023-07-13T01:30:58;95408.44;;;22.35;76.67
7834;BME280;3962;42.696;23.354;2023-07-13T01:33:25;95419.91;;;22.31;77.27
7834;BME280;3962;42.696;23.354;2023-07-13T01:35:52;95423.03;;;22.28;77.40
7834;BME280;3962;42.696;23.354;2023-07-13T01:38:22;95416.56;;;22.35;77.17
7834;BME280;3962;42.696;23.354;2023-07-13T01:40:49;95422.78;;;22.36;76.89
7834;BME280;3962;42.696;23.354;2023-07-13T01:43:17;95414.47;;;22.37;76.24
7834;BME280;3962;42.696;23.354;2023-07-13T01:45:44;95413.84;;;22.35;76.02
7834;BME280;3962;42.696;23.354;2023-07-13T01:48:11;95415.97;;;22.27;76.44
7834;BME280;3962;42.696;23.354;2023-07-13T01:50:38;95416.00;;;22.20;76.77
7834;BME280;3962;42.696;23.354;2023-07-13T01:53:05;95414.78;;;22.10;77.07
7834;BME280;3962;42.696;23.354;2023-07-13T01:55:34;95409.16;;;22.05;77.60
7834;BME280;3962;42.696;23.354;2023-07-13T01:58:02;95414.00;;;21.96;77.91
7834;BME280;3962;42.696;23.354;2023-07-13T02:00:29;95419.22;;;21.91;77.73
7834;BME280;3962;42.696;23.354;2023-07-13T02:02:56;95415.06;;;21.89;77.89
7834;BME280;3962;42.696;23.354;2023-07-13T02:05:22;95424.44;;;21.86;78.19
7834;BME280;3962;42.696;23.354;2023-07-13T02:07:49;95419.03;;;21.80;78.41
7834;BME280;3962;42.696;23.354;2023-07-13T02:10:17;95431.34;;;21.82;78.99
7834;BME280;3962;42.696;23.354;2023-07-13T02:12:45;95430.28;;;21.83;79.47
7834;BME280;3962;42.696;23.354;2023-07-13T02:15:12;95429.88;;;21.80;79.81
7834;BME280;3962;42.696;23.354;2023-07-13T02:17:38;95426.16;;;21.74;80.69
7834;BME280;3962;42.696;23.354;2023-07-13T02:20:06;95421.13;;;21.71;81.19
7834;BME280;3962;42.696;23.354;2023-07-13T02:22:33;95430.72;;;21.61;82.23
7834;BME280;3962;42.696;23.354;2023-07-13T02:25:00;95423.66;;;21.47;83.08
7834;BME280;3962;42.696;23.354;2023-07-13T02:27:27;95428.25;;;21.33;82.99
7834;BME280;3962;42.696;23.354;2023-07-13T02:29:55;95426.81;;;21.24;83.40
7834;BME280;3962;42.696;23.354;2023-07-13T02:32:22;95436.78;;;21.24;83.29
7834;BME280;3962;42.696;23.354;2023-07-13T02:34:50;95436.38;;;21.27;83.23
7834;BME280;3962;42.696;23.354;2023-07-13T02:37:18;95432.41;;;21.29;82.92
7834;BME280;3962;42.696;23.354;2023-07-13T02:39:45;95437.81;;;21.29;82.97
7834;BME280;3962;42.696;23.354;2023-07-13T02:42:13;95426.19;;;21.29;82.62
7834;BME280;3962;42.696;23.354;2023-07-13T02:44:40;95432.22;;;21.31;82.44
7834;BME280;3962;42.696;23.354;2023-07-13T02:47:08;95429.72;;;21.29;82.24
7834;BME280;3962;42.696;23.354;2023-07-13T02:49:35;95438.25;;;21.33;82.33
7834;BME280;3962;42.696;23.354;2023-07-13T02:52:02;95431.78;;;21.34;82.27
7834;BME280;3962;42.696;23.354;2023-07-13T02:54:29;95444.91;;;21.43;81.68
7834;BME280;3962;42.696;23.354;2023-07-13T02:56:56;95435.09;;;21.36;81.78
7834;BME280;3962;42.696;23.354;2023-07-13T02:59:23;95443.06;;;21.24;82.49
7834;BME280;3962;42.696;23.354;2023-07-13T03:01:50;95444.50;;;21.14;82.96
7834;BME280;3962;42.696;23.354;2023-07-13T03:04:18;95442.19;;;21.04;83.53
7834;BME280;3962;42.696;23.354;2023-07-13T03:06:45;95442.81;;;21.00;83.71
7834;BME280;3962;42.696;23.354;2023-07-13T03:09:13;95446.16;;;21.02;84.22
7834;BME280;3962;42.696;23.354;2023-07-13T03:11:39;95443.44;;;21.02;84.20
7834;BME280;3962;42.696;23.354;2023-07-13T03:14:08;95441.97;;;20.99;83.85
7834;BME280;3962;42.696;23.354;2023-07-13T03:16:35;95449.91;;;21.01;83.92
7834;BME280;3962;42.696;23.354;2023-07-13T03:19:01;95435.75;;;20.99;83.79
7834;BME280;3962;42.696;23.354;2023-07-13T03:21:29;95445.72;;;20.98;83.94
7834;BME280;3962;42.696;23.354;2023-07-13T03:23:56;95447.38;;;20.93;84.64
7834;BME280;3962;42.696;23.354;2023-07-13T03:26:23;95445.09;;;20.90;84.64
7834;BME280;3962;42.696;23.354;2023-07-13T03:28:50;95448.00;;;20.88;84.76
7834;BME280;3962;42.696;23.354;2023-07-13T03:31:19;95454.47;;;20.94;84.24
7834;BME280;3962;42.696;23.354;2023-07-13T03:33:46;95449.66;;;20.96;83.97
7834;BME280;3962;42.696;23.354;2023-07-13T03:36:16;95456.34;;;21.00;83.87
7834;BME280;3962;42.696;23.354;2023-07-13T03:38:46;95451.75;;;21.00;83.63
7834;BME280;3962;42.696;23.354;2023-07-13T03:41:14;95459.06;;;21.00;83.51
7834;BME280;3962;42.696;23.354;2023-07-13T03:43:41;95453.22;;;20.96;83.85
7834;BME280;3962;42.696;23.354;2023-07-13T03:46:08;95442.81;;;20.93;83.74
7834;BME280;3962;42.696;23.354;2023-07-13T03:48:35;95446.34;;;21.00;83.87
7834;BME280;3962;42.696;23.354;2023-07-13T03:51:02;95449.28;;;20.99;83.59
7834;BME280;3962;42.696;23.354;2023-07-13T03:53:28;95447.81;;;21.03;84.23
7834;BME280;3962;42.696;23.354;2023-07-13T03:55:57;95454.06;;;21.10;83.91
7834;BME280;3962;42.696;23.354;2023-07-13T03:58:28;95450.94;;;21.26;83.70
7834;BME280;3962;42.696;23.354;2023-07-13T04:00:56;95447.41;;;21.32;82.64
7834;BME280;3962;42.696;23.354;2023-07-13T04:03:23;95458.22;;;21.38;81.78
7834;BME280;3962;42.696;23.354;2023-07-13T04:05:50;95448.47;;;21.44;80.86
7834;BME280;3962;42.696;23.354;2023-07-13T04:08:17;95456.56;;;21.50;80.48
7834;BME280;3962;42.696;23.354;2023-07-13T04:10:44;95444.50;;;21.53;80.07
7834;BME280;3962;42.696;23.354;2023-07-13T04:13:12;95456.75;;;21.62;79.79
7834;BME280;3962;42.696;23.354;2023-07-13T04:15:40;95455.72;;;21.69;78.94
7834;BME280;3962;42.696;23.354;2023-07-13T04:18:07;95451.97;;;21.83;78.66
7834;BME280;3962;42.696;23.354;2023-07-13T04:20:34;95458.59;;;21.94;78.74
7834;BME280;3962;42.696;23.354;2023-07-13T04:23:01;95463.19;;;21.93;78.98
7834;BME280;3962;42.696;23.354;2023-07-13T04:25:28;95462.97;;;21.95;79.43
7834;BME280;3962;42.696;23.354;2023-07-13T04:27:55;95467.53;;;22.07;79.07
7834;BME280;3962;42.696;23.354;2023-07-13T04:30:24;95473.56;;;22.16;78.83
7834;BME280;3962;42.696;23.354;2023-07-13T04:32:52;95470.63;;;22.24;78.01
7834;BME280;3962;42.696;23.354;2023-07-13T04:35:19;95475.59;;;22.27;77.28
7834;BME280;3962;42.696;23.354;2023-07-13T04:37:47;95466.22;;;22.29;77.10
7834;BME280;3962;42.696;23.354;2023-07-13T04:40:16;95476.41;;;22.34;77.05
7834;BME280;3962;42.696;23.354;2023-07-13T04:42:43;95466.81;;;22.31;77.05
7834;BME280;3962;42.696;23.354;2023-07-13T04:45:10;95477.66;;;22.31;76.67
7834;BME280;3962;42.696;23.354;2023-07-13T04:47:39;95474.72;;;22.39;76.71
7834;BME280;3962;42.696;23.354;2023-07-13T04:50:06;95483.09;;;22.44;76.46
7834;BME280;3962;42.696;23.354;2023-07-13T04:52:33;95485.75;;;22.51;76.17
7834;BME280;3962;42.696;23.354;2023-07-13T04:55:00;95487.81;;;22.55;75.82
7834;BME280;3962;42.696;23.354;2023-07-13T04:57:28;95498.22;;;22.65;75.68
7834;BME280;3962;42.696;23.354;2023-07-13T04:59:54;95495.25;;;22.73;75.35
7834;BME280;3962;42.696;23.354;2023-07-13T05:02:21;95495.06;;;22.68;75.49
7834;BME280;3962;42.696;23.354;2023-07-13T05:04:50;95488.19;;;22.65;75.43
7834;BME280;3962;42.696;23.354;2023-07-13T05:07:16;95494.84;;;22.69;75.11
7834;BME280;3962;42.696;23.354;2023-07-13T05:09:43;95493.34;;;22.80;74.50
7834;BME280;3962;42.696;23.354;2023-07-13T05:12:10;95491.84;;;22.84;73.67
7834;BME280;3962;42.696;23.354;2023-07-13T05:14:37;95498.16;;;22.78;73.95
7834;BME280;3962;42.696;23.354;2023-07-13T05:17:04;95498.13;;;22.84;74.35
7834;BME280;3962;42.696;23.354;2023-07-13T05:19:31;95500.31;;;23.00;74.22
7834;BME280;3962;42.696;23.354;2023-07-13T05:22:00;95499.13;;;22.90;74.06
7834;BME280;3962;42.696;23.354;2023-07-13T05:24:28;95496.38;;;22.96;73.42
7834;BME280;3962;42.696;23.354;2023-07-13T05:26:55;95491.78;;;22.97;73.67
7834;BME280;3962;42.696;23.354;2023-07-13T05:29:22;95496.75;;;23.06;73.47
7834;BME280;3962;42.696;23.354;2023-07-13T05:31:49;95497.72;;;23.18;72.54
7834;BME280;3962;42.696;23.354;2023-07-13T05:34:16;95501.34;;;23.36;71.95
7834;BME280;3962;42.696;23.354;2023-07-13T05:36:43;95498.88;;;23.59;71.28
7834;BME280;3962;42.696;23.354;2023-07-13T05:39:11;95507.31;;;23.76;70.83
7834;BME280;3962;42.696;23.354;2023-07-13T05:41:38;95517.13;;;23.77;70.22
7834;BME280;3962;42.696;23.354;2023-07-13T05:44:05;95504.09;;;23.85;69.99
7834;BME280;3962;42.696;23.354;2023-07-13T05:46:31;95504.22;;;23.97;68.78
7834;BME280;3962;42.696;23.354;2023-07-13T05:48:58;95512.34;;;24.21;68.13
7834;BME280;3962;42.696;23.354;2023-07-13T05:51:25;95512.88;;;24.48;67.77
7834;BME280;3962;42.696;23.354;2023-07-13T05:53:52;95503.78;;;24.54;66.78
7834;BME280;3962;42.696;23.354;2023-07-13T05:56:20;95507.56;;;24.53;65.93
7834;BME280;3962;42.696;23.354;2023-07-13T05:58:47;95501.72;;;24.56;65.76
7834;BME280;3962;42.696;23.354;2023-07-13T06:01:15;95506.03;;;24.63;65.54
7834;BME280;3962;42.696;23.354;2023-07-13T06:03:42;95498.72;;;24.64;64.77
7834;BME280;3962;42.696;23.354;2023-07-13T06:06:10;95485.34;;;24.92;64.99
7834;BME280;3962;42.696;23.354;2023-07-13T06:08:37;95495.47;;;25.32;63.55
7834;BME280;3962;42.696;23.354;2023-07-13T06:11:06;95501.69;;;25.51;63.08
7834;BME280;3962;42.696;23.354;2023-07-13T06:13:41;95506.91;;;25.64;63.83
7834;BME280;3962;42.696;23.354;2023-07-13T06:16:10;95504.41;;;25.51;64.56
7834;BME280;3962;42.696;23.354;2023-07-13T06:18:39;95514.09;;;25.47;65.03
7834;BME280;3962;42.696;23.354;2023-07-13T06:21:06;95509.13;;;25.44;65.00
7834;BME280;3962;42.696;23.354;2023-07-13T06:23:33;95508.59;;;25.65;65.23
7834;BME280;3962;42.696;23.354;2023-07-13T06:26:00;95513.94;;;25.83;64.37
7834;BME280;3962;42.696;23.354;2023-07-13T06:28:28;95514.81;;;26.06;62.77
7834;BME280;3962;42.696;23.354;2023-07-13T06:30:57;95511.63;;;26.09;62.39
7834;BME280;3962;42.696;23.354;2023-07-13T06:33:24;95511.88;;;26.19;62.98
7834;BME280;3962;42.696;23.354;2023-07-13T06:35:50;95506.78;;;26.23;62.17
7834;BME280;3962;42.696;23.354;2023-07-13T06:38:17;95510.22;;;26.18;62.68
7834;BME280;3962;42.696;23.354;2023-07-13T06:40:46;95505.09;;;26.33;61.47
7834;BME280;3962;42.696;23.354;2023-07-13T06:43:15;95500.00;;;26.25;60.52
7834;BME280;3962;42.696;23.354;2023-07-13T06:45:44;95503.19;;;26.34;61.04
7834;BME280;3962;42.696;23.354;2023-07-13T06:48:14;95501.75;;;26.43;60.08
7834;BME280;3962;42.696;23.354;2023-07-13T06:50:41;95501.06;;;26.98;58.77
7834;BME280;3962;42.696;23.354;2023-07-13T06:53:08;95497.41;;;27.32;57.26
7834;BME280;3962;42.696;23.354;2023-07-13T06:55:35;95499.50;;;27.42;56.71
7834;BME280;3962;42.696;23.354;2023-07-13T06:58:04;95504.38;;;27.40;56.63
7834;BME280;3962;42.696;23.354;2023-07-13T07:00:31;95501.19;;;27.59;56.57
7834;BME280;3962;42.696;23.354;2023-07-13T07:02:58;95503.31;;;27.85;55.35
7834;BME280;3962;42.696;23.354;2023-07-13T07:05:27;95508.03;;;28.39;53.14
7834;BME280;3962;42.696;23.354;2023-07-13T07:07:55;95502.22;;;29.38;50.72
7834;BME280;3962;42.696;23.354;2023-07-13T07:10:22;95507.84;;;30.37;47.32
7834;BME280;3962;42.696;23.354;2023-07-13T07:12:48;95504.59;;;30.87;47.12
7834;BME280;3962;42.696;23.354;2023-07-13T07:15:16;95509.91;;;31.80;44.74
7834;BME280;3962;42.696;23.354;2023-07-13T07:17:43;95504.75;;;32.23;42.35
7834;BME280;3962;42.696;23.354;2023-07-13T07:20:11;95507.50;;;32.43;42.41
7834;BME280;3962;42.696;23.354;2023-07-13T07:22:39;95512.16;;;32.52;41.97
7834;BME280;3962;42.696;23.354;2023-07-13T07:25:06;95511.88;;;32.54;41.76
7834;BME280;3962;42.696;23.354;2023-07-13T07:27:33;95510.22;;;32.68;41.38
7834;BME280;3962;42.696;23.354;2023-07-13T07:30:00;95508.56;;;32.82;41.11
7834;BME280;3962;42.696;23.354;2023-07-13T07:32:28;95499.41;;;32.91;40.77
7834;BME280;3962;42.696;23.354;2023-07-13T07:34:56;95496.03;;;33.19;40.08
7834;BME280;3962;42.696;23.354;2023-07-13T07:37:24;95499.06;;;33.28;40.31
7834;BME280;3962;42.696;23.354;2023-07-13T07:39:52;95493.41;;;33.53;40.21
7834;BME280;3962;42.696;23.354;2023-07-13T07:42:19;95493.66;;;33.56;39.38
7834;BME280;3962;42.696;23.354;2023-07-13T07:44:46;95495.38;;;33.42;39.88
7834;BME280;3962;42.696;23.354;2023-07-13T07:47:13;95486.00;;;33.43;39.82
7834;BME280;3962;42.696;23.354;2023-07-13T07:49:40;95484.47;;;33.66;40.33
7834;BME280;3962;42.696;23.354;2023-07-13T07:52:16;95494.06;;;33.83;39.91
7834;BME280;3962;42.696;23.354;2023-07-13T07:54:47;95485.56;;;34.13;39.82
7834;BME280;3962;42.696;23.354;2023-07-13T08:00:46;95482.53;;;34.77;37.77
7834;BME280;3962;42.696;23.354;2023-07-13T08:03:26;95474.81;;;34.45;38.70
7834;BME280;3962;42.696;23.354;2023-07-13T08:06:09;95476.88;;;34.30;38.67
7834;BME280;3962;42.696;23.354;2023-07-13T08:08:50;95467.88;;;34.76;37.03
7834;BME280;3962;42.696;23.354;2023-07-13T08:11:32;95477.13;;;35.14;36.63
7834;BME280;3962;42.696;23.354;2023-07-13T08:13:59;95462.66;;;34.75;37.68
7834;BME280;3962;42.696;23.354;2023-07-13T08:16:30;95460.47;;;34.67;37.58
7834;BME280;3962;42.696;23.354;2023-07-13T08:19:14;95460.97;;;34.79;37.91
7834;BME280;3962;42.696;23.354;2023-07-13T08:21:40;95465.06;;;35.05;37.38
7834;BME280;3962;42.696;23.354;2023-07-13T08:24:14;95462.78;;;35.54;36.59
7834;BME280;3962;42.696;23.354;2023-07-13T08:26:44;95460.13;;;35.67;35.85
7834;BME280;3962;42.696;23.354;2023-07-13T08:29:11;95453.72;;;35.48;36.18
7834;BME280;3962;42.696;23.354;2023-07-13T08:31:40;95446.25;;;35.30;37.14
7834;BME280;3962;42.696;23.354;2023-07-13T08:34:07;95454.69;;;34.92;37.61
7834;BME280;3962;42.696;23.354;2023-07-13T08:36:37;95441.41;;;34.65;37.35
7834;BME280;3962;42.696;23.354;2023-07-13T08:39:12;95440.50;;;34.51;37.89
7834;BME280;3962;42.696;23.354;2023-07-13T08:41:39;95435.19;;;34.55;37.77
7834;BME280;3962;42.696;23.354;2023-07-13T08:44:16;95442.03;;;34.62;37.98
7834;BME280;3962;42.696;23.354;2023-07-13T08:46:49;95441.94;;;34.44;38.18
7834;BME280;3962;42.696;23.354;2023-07-13T08:49:21;95439.16;;;34.44;38.38
7834;BME280;3962;42.696;23.354;2023-07-13T08:51:51;95442.13;;;34.52;38.31
7834;BME280;3962;42.696;23.354;2023-07-13T08:54:24;95446.50;;;34.58;38.18
7834;BME280;3962;42.696;23.354;2023-07-13T08:56:57;95444.94;;;34.47;38.37
7834;BME280;3962;42.696;23.354;2023-07-13T08:59:28;95454.53;;;34.83;38.13
7834;BME280;3962;42.696;23.354;2023-07-13T09:02:16;95462.66;;;34.98;37.36
7834;BME280;3962;42.696;23.354;2023-07-13T09:04:50;95467.16;;;34.37;38.22
7834;BME280;3962;42.696;23.354;2023-07-13T09:07:27;95461.97;;;34.59;38.46
7834;BME280;3962;42.696;23.354;2023-07-13T09:10:04;95474.78;;;34.50;38.24
7834;BME280;3962;42.696;23.354;2023-07-13T09:12:44;95473.78;;;34.93;37.55
7834;BME280;3962;42.696;23.354;2023-07-13T09:15:25;95470.91;;;34.80;37.29
7834;BME280;3962;42.696;23.354;2023-07-13T09:18:02;95465.28;;;34.85;36.95
7834;BME280;3962;42.696;23.354;2023-07-13T09:20:32;95472.00;;;34.79;37.63
7834;BME280;3962;42.696;23.354;2023-07-13T09:23:04;95478.59;;;34.54;38.93
7834;BME280;3962;42.696;23.354;2023-07-13T09:25:35;95466.25;;;34.47;38.45
7834;BME280;3962;42.696;23.354;2023-07-13T09:28:10;95462.19;;;34.91;38.04
7834;BME280;3962;42.696;23.354;2023-07-13T09:30:43;95458.34;;;35.34;37.81
7834;BME280;3962;42.696;23.354;2023-07-13T09:33:13;95464.78;;;35.30;37.84
7834;BME280;3962;42.696;23.354;2023-07-13T09:35:40;95458.56;;;35.38;37.88
7834;BME280;3962;42.696;23.354;2023-07-13T09:38:12;95468.16;;;35.27;37.17
7834;BME280;3962;42.696;23.354;2023-07-13T09:40:58;95460.47;;;35.19;37.05
7834;BME280;3962;42.696;23.354;2023-07-13T09:43:26;95452.75;;;35.39;36.79
7834;BME280;3962;42.696;23.354;2023-07-13T09:45:55;95450.13;;;35.71;37.00
7834;BME280;3962;42.696;23.354;2023-07-13T09:48:23;95441.41;;;35.78;36.09
7834;BME280;3962;42.696;23.354;2023-07-13T09:50:54;95438.19;;;35.71;35.80
7834;BME280;3962;42.696;23.354;2023-07-13T09:53:22;95430.50;;;35.68;35.57
7834;BME280;3962;42.696;23.354;2023-07-13T09:55:50;95424.03;;;35.54;35.76
7834;BME280;3962;42.696;23.354;2023-07-13T09:58:19;95428.22;;;35.51;36.18
7834;BME280;3962;42.696;23.354;2023-07-13T10:00:54;95428.91;;;35.62;36.80
7834;BME280;3962;42.696;23.354;2023-07-13T10:03:27;95422.78;;;35.46;36.44
7834;BME280;3962;42.696;23.354;2023-07-13T10:06:03;95416.22;;;35.19;36.30
7834;BME280;3962;42.696;23.354;2023-07-13T10:08:31;95414.53;;;35.41;36.12
7834;BME280;3962;42.696;23.354;2023-07-13T10:11:10;95408.09;;;35.64;35.78
7834;BME280;3962;42.696;23.354;2023-07-13T10:13:41;95403.28;;;35.75;35.24
7834;BME280;3962;42.696;23.354;2023-07-13T10:16:09;95398.84;;;35.55;35.47
7834;BME280;3962;42.696;23.354;2023-07-13T10:18:44;95408.84;;;35.88;35.31
7834;BME280;3962;42.696;23.354;2023-07-13T10:21:18;95414.25;;;36.30;35.95
7834;BME280;3962;42.696;23.354;2023-07-13T10:23:50;95419.91;;;36.25;35.86
7834;BME280;3962;42.696;23.354;2023-07-13T10:26:22;95410.75;;;36.25;35.00
7834;BME280;3962;42.696;23.354;2023-07-13T10:28:52;95393.91;;;36.03;35.44
7834;BME280;3962;42.696;23.354;2023-07-13T10:31:22;95401.22;;;35.99;31.20
7834;BME280;3962;42.696;23.354;2023-07-13T10:33:51;95391.81;;;36.45;30.93
7834;BME280;3962;42.696;23.354;2023-07-13T10:36:27;95393.31;;;36.83;29.77
7834;BME280;3962;42.696;23.354;2023-07-13T10:38:57;95389.09;;;36.86;30.12
7834;BME280;3962;42.696;23.354;2023-07-13T10:41:27;95379.19;;;36.39;29.82
7834;BME280;3962;42.696;23.354;2023-07-13T10:43:58;95374.31;;;36.18;29.68
7834;BME280;3962;42.696;23.354;2023-07-13T10:46:27;95376.50;;;36.48;29.22
7834;BME280;3962;42.696;23.354;2023-07-13T10:48:59;95361.72;;;36.25;29.09
7834;BME280;3962;42.696;23.354;2023-07-13T10:51:29;95370.38;;;37.04;29.32
7834;BME280;3962;42.696;23.354;2023-07-13T10:54:18;95372.81;;;37.33;28.96
7834;BME280;3962;42.696;23.354;2023-07-13T10:56:50;95366.03;;;37.52;29.45
7834;BME280;3962;42.696;23.354;2023-07-13T10:59:19;95365.59;;;37.10;29.17
7834;BME280;3962;42.696;23.354;2023-07-13T11:01:56;95358.59;;;37.12;29.40
7834;BME280;3962;42.696;23.354;2023-07-13T11:04:25;95346.78;;;36.80;28.54
7834;BME280;3962;42.696;23.354;2023-07-13T11:06:56;95354.38;;;37.15;27.21
7834;BME280;3962;42.696;23.354;2023-07-13T11:09:33;95348.56;;;37.38;27.14
7834;BME280;3962;42.696;23.354;2023-07-13T11:12:06;95339.53;;;37.33;27.96
7834;BME280;3962;42.696;23.354;2023-07-13T11:14:35;95337.22;;;37.13;28.23
7834;BME280;3962;42.696;23.354;2023-07-13T11:17:25;95331.94;;;37.25;27.78
7834;BME280;3962;42.696;23.354;2023-07-13T11:20:18;95341.38;;;37.37;27.27
7834;BME280;3962;42.696;23.354;2023-07-13T11:22:48;95339.41;;;36.76;28.32
7834;BME280;3962;42.696;23.354;2023-07-13T11:25:26;95339.38;;;36.62;28.51
7834;BME280;3962;42.696;23.354;2023-07-13T11:28:07;95327.69;;;36.79;28.29
7834;BME280;3962;42.696;23.354;2023-07-13T11:30:42;95322.94;;;36.92;27.94
7834;BME280;3962;42.696;23.354;2023-07-13T11:33:16;95319.75;;;37.61;29.13
7834;BME280;3962;42.696;23.354;2023-07-13T11:35:57;95327.38;;;37.42;26.49
7834;BME280;3962;42.696;23.354;2023-07-13T11:38:31;95315.84;;;37.13;27.67
7834;BME280;3962;42.696;23.354;2023-07-13T11:41:01;95313.25;;;37.03;28.28
7834;BME280;3962;42.696;23.354;2023-07-13T11:43:29;95316.88;;;36.77;28.16
7834;BME280;3962;42.696;23.354;2023-07-13T11:45:59;95310.31;;;36.87;29.17
7834;BME280;3962;42.696;23.354;2023-07-13T11:48:28;95306.19;;;37.11;28.38
7834;BME280;3962;42.696;23.354;2023-07-13T11:51:01;95299.47;;;36.63;28.35
7834;BME280;3962;42.696;23.354;2023-07-13T11:53:47;95308.03;;;36.88;28.88
7834;BME280;3962;42.696;23.354;2023-07-13T11:56:15;95307.94;;;36.93;29.45
7834;BME280;3962;42.696;23.354;2023-07-13T11:58:43;95301.25;;;37.21;29.27
7834;BME280;3962;42.696;23.354;2023-07-13T12:01:17;95294.28;;;36.97;29.59
7834;BME280;3962;42.696;23.354;2023-07-13T12:03:46;95298.81;;;37.28;29.76
7834;BME280;3962;42.696;23.354;2023-07-13T12:06:26;95286.19;;;37.36;29.73
7834;BME280;3962;42.696;23.354;2023-07-13T12:08:56;95284.59;;;37.57;29.92
7834;BME280;3962;42.696;23.354;2023-07-13T12:11:24;95288.47;;;37.56;30.20
7834;BME280;3962;42.696;23.354;2023-07-13T12:13:51;95282.84;;;37.12;30.01
7834;BME280;3962;42.696;23.354;2023-07-13T12:16:24;95282.50;;;37.27;29.50
7834;BME280;3962;42.696;23.354;2023-07-13T12:18:52;95274.41;;;37.52;29.38
7834;BME280;3962;42.696;23.354;2023-07-13T12:21:29;95274.47;;;37.61;29.31
7834;BME280;3962;42.696;23.354;2023-07-13T12:23:58;95263.38;;;37.25;28.84
7834;BME280;3962;42.696;23.354;2023-07-13T12:26:28;95265.81;;;37.40;29.94
7834;BME280;3962;42.696;23.354;2023-07-13T12:28:58;95256.41;;;37.28;29.25
7834;BME280;3962;42.696;23.354;2023-07-13T12:31:31;95258.66;;;37.48;29.08
7834;BME280;3962;42.696;23.354;2023-07-13T12:34:01;95242.50;;;37.28;28.83
7834;BME280;3962;42.696;23.354;2023-07-13T12:36:32;95246.47;;;37.35;28.83
7834;BME280;3962;42.696;23.354;2023-07-13T12:39:13;95244.78;;;36.91;29.12
7834;BME280;3962;42.696;23.354;2023-07-13T12:41:40;95238.78;;;36.97;28.60
7834;BME280;3962;42.696;23.354;2023-07-13T12:44:14;95237.44;;;37.08;29.10
7834;BME280;3962;42.696;23.354;2023-07-13T12:46:52;95236.50;;;37.34;28.75
7834;BME280;3962;42.696;23.354;2023-07-13T12:49:23;95230.84;;;37.39;28.56
7834;BME280;3962;42.696;23.354;2023-07-13T12:51:56;95237.13;;;37.09;28.26
7834;BME280;3962;42.696;23.354;2023-07-13T12:54:23;95223.50;;;37.43;29.11
7834;BME280;3962;42.696;23.354;2023-07-13T12:56:50;95227.72;;;37.54;29.11
7834;BME280;3962;42.696;23.354;2023-07-13T12:59:23;95216.72;;;37.71;29.56
7834;BME280;3962;42.696;23.354;2023-07-13T13:01:51;95215.63;;;37.37;28.64
7834;BME280;3962;42.696;23.354;2023-07-13T13:04:20;95212.09;;;37.23;27.88
7834;BME280;3962;42.696;23.354;2023-07-13T13:06:47;95214.28;;;37.12;28.95
7834;BME280;3962;42.696;23.354;2023-07-13T13:09:17;95208.91;;;37.29;28.45
7834;BME280;3962;42.696;23.354;2023-07-13T13:11:45;95200.59;;;37.29;28.62
7834;BME280;3962;42.696;23.354;2023-07-13T13:14:12;95204.69;;;37.54;27.86
7834;BME280;3962;42.696;23.354;2023-07-13T13:16:46;95206.22;;;37.68;28.24
7834;BME280;3962;42.696;23.354;2023-07-13T13:19:16;95199.63;;;37.56;27.70
7834;BME280;3962;42.696;23.354;2023-07-13T13:21:45;95203.28;;;37.43;27.82
7834;BME280;3962;42.696;23.354;2023-07-13T13:24:13;95201.31;;;37.65;27.88
7834;BME280;3962;42.696;23.354;2023-07-13T13:26:43;95200.72;;;37.77;27.74